map of NQA home
NQA - Airport
Location
City:  Millington, Tennessee, United States
Name:Millington Regional Jetport
ICAO:KNQA
IATA:NQA
FAA LID:NQA

Details
Type:Airport (Part 139 Class IV)
Use:Public/Civil
Latitude:3521'24"N (35.356639)
Longitude:8952'13"W (-89.870416)
Datum:WGS 1984
Elevation:319 ft (97 m)
Variation:1.46W (WMM2015 magnetic declination)
-0.10 annual change
Runways:1
Longest:8000 × 200 ft (2438 × 61 m), paved

Time
Time Zone:UTC-6 (DST-5)
Local Time:

Weather
METAR:KNQA 111515Z 17004KT 10SM SKC 08/00 A3013 RMK A01

Related Locations
Nearby:
Farthest:MQZ: 11022 mi / 17737 km
Margaret River [Margaret River Airport], WA, AU

Find:

   beyond  
but within

Other Information
Maps:
NOTAMs:
Links:
Sources:

  
flag of United States
flag of Tennessee
  

Airport Diagram

Airport diagram for NQA

Airport diagram PDF

Sectional Chart

Flight Planning
at skyvector.com

Satellite Image

Google Maps Satellite view

 

Copyright © 2004-2017 Karl L. Swartz. All rights reserved.
The Great Circle Mapper name and logo are trademarks of the Great Circle Mapper.
All other trademarks mentioned herein belong to their respective owners.
Please see credits for attibutions and further copyright information.

  Follow gcmap on Facebook Follow gcmap on Twitter Follow gcmap on Google+ GCmap on LinkedIn

hCard Microformat

Geo Microformat